Camerino, Italy

5:37 PM CEST on September 03, 2015 (GMT +0200)
San Severino Marche | | Change Station
CLOSE
Current Station
Personal Weather Station
Location: San Severino Marche, MACERATA
Elevation: 1834 ft
Nearby Weather Stations

Elev 1834 ft 43.24 °N, 13.15 °E | Updated 4 minutes ago

Partly Cloudy
Partly Cloudy
80.1 °F
Feels Like 80 °F
N
6.1
Wind Variable Wind from West
Gusts 10.6 mph

Today
High -- | Low -- °F
--% Chance of Precip.
Yesterday
High -- | Low -- °F
Precip. -- in
6:33 AM 7:40 PM
Waning Gibbous, 69% visible
Pressure 29.92 in
Visibility 6.2 miles
Clouds Few 3000 ft
Heat Index 80 °F
Dew Point 54 °F
Humidity 41%
Rainfall 0.00 in
Snow Depth Not available.
UV 3 out of 12
Pollen Not available.
Air Quality Not available.
Flu Activity Not available.
METAR LIVF 031455Z 24004KT 9999 FEW030CB 25/18 Q1013 RMK BKN MON LIB VAL NIL VIS MIN 9999
Pressure 29.92 in
Visibility 6.2 miles
Clouds Few 3000 ft
Heat Index 80 °F
Dew Point 54 °F
Humidity 41%
Rainfall 0.00 in
Snow Depth Not available.
UV 3 out of 12
Pollen Not available.
Air Quality Not available.
Flu Activity Not available.
METAR LIVF 031455Z 24004KT 9999 FEW030CB 25/18 Q1013 RMK BKN MON LIB VAL NIL VIS MIN 9999

10-Day Weather Forecast

×

Almanac

Astronomy

Sep. 03, 2015 Rise Set
Actual Time
Civil Twilight
Nautical Twilight
Astronomical Twilight
Moon
Length of Visible Light
Length of Day
Tomorrow will be .
, % of the Moon is Illuminated

Today's Extremes

Country Highs Country Lows

Community

WunderPhotos

Upload Photos

1,851,972 photos uploaded!

WunderBlogs® & News

Nearby

Air Quality

  Air Quality AQ Index Pollutant
Not available.

Snow Depth

Station Depth Elevation

Earthquake Activity

City Distance Mag. Time & Date
Minimum magnitude displayed is 2.5.

Coastal Water Temperatures

Place Temperature

Stations

Nearby Weather Stations

Station Location Temp. Windchill Dew Point Humidity Wind Precip. Elev Updated Type